Wall Lake, South Dakota
Current Conditions -  °F | °C
As of 1:56 PM on Friday 28 Nov 2014 (Local Time) from KFSD Reporting Station
Broken Clouds Broken Clouds  
Wind Chill: 24°   Ceiling: 25000
Heat Index: 32°   Visibility: 10mi
Dew Point: 26°   Wind: 10mph
Humidity: 79%   Direction: 110°ESE
Pressure: 29.68"   Gusts: NA
Location:  43.6522°N, 96.9799°W
Report Text: KFSD 281956Z 11009KT 10SM FEW140 BKN250 00/M03 A2968 RMK AO2 SLP071 T00001033
Loading
Personal Weather Stations






























Interactive Weather Map New forecast layout! Learn more

10-Day Weather Forecast

Advertisements
Track Severe Weather on mobile